Terminal Aerodrome Forecast
Issued by NWS Greer, SC

Home | Current Version | Previous Version | Text Only | Print | Product List | Glossary On
Versions: 1 2 3 4 5 6 7 8 9 10 11 12 13 14 15 16 17 18 19 20 21 22 23 24 25 26 27 28 29 30 31 32 33 34
000
FTUS42 KGSP 260531
TAFAVL
TAF
KAVL 260531Z 2606/2706 17004KT P6SM OVC040
      TEMPO 2606/2609 5SM -TSRA BR OVC025CB
     FM260900 14003KT 5SM BR VCSH OVC015
     FM261200 00000KT 5SM BR OVC021
     FM261500 17004KT P6SM OVC030 PROB30 2615/2618 4SM TSRA OVC020CB
     FM261800 17006KT P6SM OVC035 PROB30 2618/2622 4SM TSRA OVC025CB
     FM262200 16005KT P6SM VCTS BKN070CB
     FM270300 16003KT P6SM -SHRA OVC050 PROB30 2703/2706 4SM TSRA
      OVC040CB=

USA.gov is the U.S. government's official web portal to all federal, state and local government web resources and services.